Time;durP1;ratioP1;P1;durP2;ratioP2;P2;SDS_P1;SDS_P2;PMS_P1;PMS_P2;Temp;Humidity;BMP_temperature;BMP_pressure;BME280_temperature;BME280_humidity;BME280_pressure;Samples;Min_cycle;Max_cycle;Signal;HPM_P1;HPM_P2
2021/09/25 00:00:30;;;;;;;13.67;10.20;;;;;;;12.45;100.00;96099.19;1020046;29;20023;-61
2021/09/25 00:01:00;;;;;;;14.23;11.13;;;;;;;12.43;100.00;96094.09;1023933;29;20383;-62
2021/09/25 00:01:31;;;;;;;14.57;10.67;;;;;;;12.44;100.00;96094.91;1020587;28;20027;-62
2021/09/25 00:02:01;;;;;;;15.33;10.47;;;;;;;12.44;100.00;96095.72;1023845;29;20027;-62
2021/09/25 00:02:32;;;;;;;14.27;10.53;;;;;;;12.47;100.00;96094.34;1023912;29;20047;-61
2021/09/25 00:03:03;;;;;;;15.07;10.40;;;;;;;12.46;100.00;96095.44;1023993;28;20019;-62
2021/09/25 00:03:33;;;;;;;13.00;10.38;;;;;;;12.44;100.00;96101.06;1027887;28;20106;-62
2021/09/25 00:04:04;;;;;;;13.73;10.73;;;;;;;12.42;100.00;96097.06;1027836;28;20023;-62
2021/09/25 00:04:35;;;;;;;15.30;9.90;;;;;;;12.42;100.00;96094.38;1027912;28;20419;-62
2021/09/25 00:05:06;;;;;;;13.57;10.03;;;;;;;12.43;100.00;96093.28;1028004;28;20077;-62
2021/09/25 00:05:37;;;;;;;13.02;10.27;;;;;;;12.39;100.00;96100.31;1028230;28;20064;-62
2021/09/25 00:06:08;;;;;;;14.25;9.98;;;;;;;12.37;100.00;96094.41;1028140;28;20535;-62
2021/09/25 00:06:38;;;;;;;13.13;10.23;;;;;;;12.37;100.00;96092.53;1028114;28;20015;-62
2021/09/25 00:07:10;;;;;;;13.93;9.77;;;;;;;12.39;100.00;96090.38;1028289;28;20018;-62
2021/09/25 00:07:40;;;;;;;15.70;10.38;;;;;;;12.37;100.00;96081.81;1028143;28;20089;-62
2021/09/25 00:08:10;;;;;;;14.33;10.03;;;;;;;12.37;100.00;96083.69;1031941;28;20026;-62
2021/09/25 00:08:41;;;;;;;14.37;10.60;;;;;;;12.36;100.00;96087.47;1031814;28;20034;-62
2021/09/25 00:09:12;;;;;;;15.40;11.00;;;;;;;12.34;100.00;96085.06;1031963;28;20089;-62
2021/09/25 00:09:43;;;;;;;13.97;10.50;;;;;;;12.36;100.00;96088.25;1023820;29;20515;-62
2021/09/25 00:10:15;;;;;;;14.77;11.00;;;;;;;12.34;100.00;96085.06;1023944;29;20073;-62
2021/09/25 00:10:46;;;;;;;14.02;10.25;;;;;;;12.34;100.00;96090.44;1019915;29;20472;-62
2021/09/25 00:11:16;;;;;;;13.17;10.70;;;;;;;12.38;100.00;96094.13;1020892;28;20020;-62
2021/09/25 00:11:46;;;;;;;13.57;10.47;;;;;;;12.38;100.00;96091.44;1027694;28;20023;-62
2021/09/25 00:12:17;;;;;;;14.10;10.73;;;;;;;12.37;100.00;96087.16;1027945;28;20066;-62
2021/09/25 00:12:47;;;;;;;14.37;11.13;;;;;;;12.33;100.00;96093.34;1031849;28;20105;-62
2021/09/25 00:13:18;;;;;;;14.17;10.87;;;;;;;12.33;100.00;96094.16;1027949;28;20038;-62
2021/09/25 00:13:48;;;;;;;15.13;10.87;;;;;;;12.34;100.00;96086.94;1027824;28;20022;-62
2021/09/25 00:14:19;;;;;;;16.57;11.97;;;;;;;12.33;100.00;96094.16;1027896;28;20027;-62
2021/09/25 00:14:49;;;;;;;14.73;11.17;;;;;;;12.33;100.00;96088.00;1027814;28;20026;-62
2021/09/25 00:15:20;;;;;;;15.80;10.97;;;;;;;12.32;100.00;96083.72;1027883;28;20031;-62
2021/09/25 00:15:51;;;;;;;15.32;11.13;;;;;;;12.31;100.00;96082.94;1028129;28;20054;-62
2021/09/25 00:16:25;;;;;;;15.20;10.87;;;;;;;12.28;100.00;96085.34;1027779;28;20463;-62
2021/09/25 00:16:56;;;;;;;14.20;11.10;;;;;;;12.29;100.00;96084.31;1023860;29;20037;-62
2021/09/25 00:17:26;;;;;;;13.07;10.57;;;;;;;12.28;100.00;96094.19;1023932;29;20019;-62
2021/09/25 00:17:57;;;;;;;14.50;11.30;;;;;;;12.30;100.00;96096.63;1024437;28;20027;-62
2021/09/25 00:18:28;;;;;;;15.38;10.82;;;;;;;12.31;100.00;96084.81;1027805;28;20030;-62
2021/09/25 00:18:59;;;;;;;14.27;11.60;;;;;;;12.31;100.00;96090.97;1028183;28;20076;-62
2021/09/25 00:19:29;;;;;;;14.50;10.85;;;;;;;12.28;100.00;96086.16;1028149;28;20062;-62
2021/09/25 00:19:59;;;;;;;15.20;11.63;;;;;;;12.29;100.00;96085.09;1027774;28;20031;-62
2021/09/25 00:20:30;;;;;;;16.10;10.93;;;;;;;12.28;100.00;96090.72;1027746;28;20027;-62
2021/09/25 00:21:01;;;;;;;15.80;10.33;;;;;;;12.26;100.00;96085.63;1027832;28;20023;-62
2021/09/25 00:21:31;;;;;;;16.00;10.77;;;;;;;12.27;100.00;96081.06;1027913;28;20097;-62
2021/09/25 00:22:02;;;;;;;14.23;10.43;;;;;;;12.27;100.00;96081.88;1023826;29;20074;-62
2021/09/25 00:22:32;;;;;;;16.60;11.03;;;;;;;12.28;100.00;96086.16;1023958;29;20023;-62
2021/09/25 00:23:03;;;;;;;13.57;10.87;;;;;;;12.26;100.00;96085.63;1023878;29;20027;-62
2021/09/25 00:23:33;;;;;;;13.07;10.67;;;;;;;12.28;100.00;96090.72;1024002;28;20511;-62
2021/09/25 00:24:04;;;;;;;15.30;10.30;;;;;;;12.26;100.00;96082.97;1028149;28;20026;-62
2021/09/25 00:24:35;;;;;;;13.37;10.43;;;;;;;12.27;100.00;96084.56;1027760;28;20035;-62
2021/09/25 00:25:05;;;;;;;14.53;10.63;;;;;;;12.28;100.00;96086.16;1027432;28;20081;-62
2021/09/25 00:25:36;;;;;;;14.20;10.60;;;;;;;12.26;100.00;96085.63;1027652;28;20105;-62
2021/09/25 00:26:06;;;;;;;12.97;10.13;;;;;;;12.28;100.00;96085.34;1027896;28;20034;-62
2021/09/25 00:26:36;;;;;;;14.77;10.73;;;;;;;12.28;100.00;96091.50;1028108;28;20062;-62
2021/09/25 00:27:07;;;;;;;14.17;10.57;;;;;;;12.30;100.00;96089.38;1027746;28;20033;-62
2021/09/25 00:27:37;;;;;;;13.77;10.40;;;;;;;12.25;100.00;96081.38;1027898;28;20034;-62
2021/09/25 00:28:08;;;;;;;13.07;10.37;;;;;;;12.26;100.00;96082.97;1023960;29;20467;-62
2021/09/25 00:28:38;;;;;;;13.60;10.70;;;;;;;12.25;100.00;96091.28;1023963;28;20495;-63
2021/09/25 00:29:09;;;;;;;12.80;10.20;;;;;;;12.20;100.00;96089.44;1023885;29;20019;-62
2021/09/25 00:29:39;;;;;;;15.13;10.40;;;;;;;12.18;100.00;96083.53;1023938;28;20031;-62
2021/09/25 00:30:10;;;;;;;12.60;9.97;;;;;;;12.22;100.00;96090.75;1027902;28;20038;-62
2021/09/25 00:30:40;;;;;;;15.15;10.30;;;;;;;12.20;100.00;96084.06;1023885;28;20125;-62
2021/09/25 00:31:11;;;;;;;15.73;10.97;;;;;;;12.18;100.00;96096.94;1027782;28;20383;-62
2021/09/25 00:31:42;;;;;;;15.75;10.52;;;;;;;12.20;100.00;96089.44;1023774;29;20476;-62
2021/09/25 00:32:12;;;;;;;15.00;10.20;;;;;;;12.17;100.00;96087.31;1024011;28;20039;-62
2021/09/25 00:32:43;;;;;;;13.27;10.47;;;;;;;12.14;100.00;96095.91;1027876;28;20495;-62
2021/09/25 00:33:13;;;;;;;15.10;10.87;;;;;;;12.15;100.00;96092.16;1027780;28;20091;-62
2021/09/25 00:33:43;;;;;;;16.40;10.53;;;;;;;12.16;100.00;96094.53;1027734;28;20027;-62
2021/09/25 00:34:14;;;;;;;12.70;10.03;;;;;;;12.15;100.00;96090.25;1027867;28;20022;-62
2021/09/25 00:34:44;;;;;;;15.17;9.97;;;;;;;12.15;100.00;96095.63;1027819;28;20122;-62
2021/09/25 00:35:15;;;;;;;15.40;10.43;;;;;;;12.18;100.00;96097.75;1023830;28;20023;-62
2021/09/25 00:35:45;;;;;;;16.40;10.70;;;;;;;12.15;100.00;96098.31;1023787;29;20034;-62
2021/09/25 00:36:16;;;;;;;15.10;10.80;;;;;;;12.13;100.00;96099.63;1023872;29;20035;-62
2021/09/25 00:36:47;;;;;;;14.37;10.73;;;;;;;12.11;100.00;96094.56;1023971;28;20490;-62
2021/09/25 00:37:17;;;;;;;12.73;10.48;;;;;;;12.05;100.00;96103.72;1027944;28;20050;-62
2021/09/25 00:37:48;;;;;;;13.97;10.27;;;;;;;12.03;100.00;96099.69;1027869;28;20062;-62
2021/09/25 00:38:18;;;;;;;14.57;10.83;;;;;;;12.07;100.00;96106.09;1019885;29;20028;-62
2021/09/25 00:38:49;;;;;;;14.07;10.40;;;;;;;12.10;100.00;96108.25;1015872;29;20477;-62
2021/09/25 00:39:19;;;;;;;14.40;10.57;;;;;;;12.09;100.00;96102.09;1015948;29;20495;-62
2021/09/25 00:39:49;;;;;;;18.23;10.63;;;;;;;12.09;100.00;96104.78;1019898;28;20039;-62
2021/09/25 00:40:20;;;;;;;14.30;11.10;;;;;;;12.11;100.00;96099.94;1023835;28;20034;-62
2021/09/25 00:40:50;;;;;;;14.07;11.07;;;;;;;12.11;100.00;96107.16;1027868;28;20023;-62
2021/09/25 00:41:21;;;;;;;14.20;10.33;;;;;;;12.14;100.00;96102.06;1027743;28;20027;-62
2021/09/25 00:41:51;;;;;;;14.00;10.53;;;;;;;12.15;100.00;96103.66;1027831;28;20026;-62
2021/09/25 00:42:22;;;;;;;14.13;10.47;;;;;;;12.14;100.00;96095.91;1028122;28;20039;-62
2021/09/25 00:42:52;;;;;;;14.30;10.10;;;;;;;12.16;100.00;96109.81;1027787;28;20063;-62
2021/09/25 00:43:23;;;;;;;17.33;11.10;;;;;;;12.14;100.00;96098.59;1027738;28;20026;-61
2021/09/25 00:43:53;;;;;;;12.40;10.60;;;;;;;12.16;100.00;96099.09;1027873;28;20424;-61
2021/09/25 00:44:23;;;;;;;13.00;10.67;;;;;;;12.17;100.00;96101.50;1027805;28;20392;-61
2021/09/25 00:44:54;;;;;;;15.23;10.70;;;;;;;12.16;100.00;96105.25;1028002;28;20495;-61
2021/09/25 00:45:26;;;;;;;15.43;10.80;;;;;;;12.15;100.00;96098.31;1027667;28;20034;-62
2021/09/25 00:45:56;;;;;;;14.25;10.93;;;;;;;12.10;100.00;96100.22;1027844;28;20026;-61
2021/09/25 00:46:27;;;;;;;14.23;10.67;;;;;;;12.10;100.00;96095.66;1027637;28;20436;-62
2021/09/25 00:46:58;;;;;;;13.47;10.67;;;;;;;12.10;100.00;96103.69;1024005;28;20396;-62
2021/09/25 00:47:28;;;;;;;13.05;10.10;;;;;;;12.11;100.00;96096.44;1027704;28;20495;-62
2021/09/25 00:47:59;;;;;;;14.97;10.50;;;;;;;12.13;100.00;96105.00;1027778;28;20037;-62
2021/09/25 00:48:29;;;;;;;12.83;10.37;;;;;;;12.14;100.00;96096.72;1027779;28;20034;-62
2021/09/25 00:48:59;;;;;;;14.23;10.27;;;;;;;12.13;100.00;96095.09;1028112;28;20034;-62
2021/09/25 00:49:30;;;;;;;13.37;10.80;;;;;;;12.11;100.00;96094.56;1028012;28;20030;-62
2021/09/25 00:50:00;;;;;;;12.87;10.47;;;;;;;12.11;100.00;96099.13;1027779;28;20027;-62
2021/09/25 00:50:31;;;;;;;17.33;11.60;;;;;;;12.11;100.00;96096.44;1027781;28;20061;-62
2021/09/25 00:51:01;;;;;;;14.73;11.43;;;;;;;12.10;100.00;96092.19;1027847;28;20035;-62
2021/09/25 00:51:32;;;;;;;14.23;11.70;;;;;;;12.11;100.00;96086.53;1023754;28;20031;-61
2021/09/25 00:52:02;;;;;;;14.30;10.73;;;;;;;12.10;100.00;96102.88;1027822;28;20031;-62
2021/09/25 00:52:33;;;;;;;16.37;10.47;;;;;;;12.09;100.00;96098.63;1027783;28;20519;-62
2021/09/25 00:53:03;;;;;;;14.93;11.23;;;;;;;12.07;100.00;96095.41;1027801;28;20110;-62
2021/09/25 00:53:34;;;;;;;18.97;11.37;;;;;;;12.06;100.00;96096.47;1027757;28;20066;-62
2021/09/25 00:54:04;;;;;;;15.03;10.40;;;;;;;12.05;100.00;96092.19;1027785;28;20082;-61
2021/09/25 00:54:35;;;;;;;14.83;10.53;;;;;;;12.03;100.00;96097.00;1027743;28;20345;-61
2021/09/25 00:55:06;;;;;;;14.70;11.23;;;;;;;12.02;100.00;96090.06;1023831;29;20060;-61
2021/09/25 00:55:36;;;;;;;13.03;10.57;;;;;;;12.06;100.00;96096.47;1015822;29;20016;-61
2021/09/25 00:56:07;;;;;;;13.60;10.87;;;;;;;12.05;100.00;96102.91;1012065;29;20024;-62
2021/09/25 00:56:37;;;;;;;15.40;10.87;;;;;;;12.03;100.00;96092.50;1011921;29;20021;-62
2021/09/25 00:57:07;;;;;;;14.13;10.67;;;;;;;12.05;100.00;96092.19;1015962;29;20488;-62
2021/09/25 00:57:38;;;;;;;14.80;11.00;;;;;;;12.05;100.00;96100.25;1015854;29;20028;-62
2021/09/25 00:58:09;;;;;;;14.70;11.40;;;;;;;12.05;100.00;96095.69;1012106;29;20025;-62
2021/09/25 00:58:39;;;;;;;15.10;10.97;;;;;;;12.05;100.00;96100.25;1016126;29;20043;-62
2021/09/25 00:59:10;;;;;;;13.80;10.40;;;;;;;12.07;100.00;96093.50;1023989;28;20035;-62
2021/09/25 00:59:41;;;;;;;13.07;10.50;;;;;;;12.05;100.00;96100.25;1027807;28;20094;-62
2021/09/25 01:00:11;;;;;;;14.40;10.13;;;;;;;12.04;100.00;96093.28;1027826;28;20118;-62
2021/09/25 01:00:42;;;;;;;16.70;11.17;;;;;;;12.04;100.00;96093.28;1027797;28;20023;-62
2021/09/25 01:01:12;;;;;;;15.17;10.50;;;;;;;12.05;100.00;96093.00;1027842;28;20062;-62
2021/09/25 01:01:42;;;;;;;17.47;11.20;;;;;;;12.01;100.00;96088.47;1027797;28;20034;-62
2021/09/25 01:02:17;;;;;;;14.03;10.67;;;;;;;12.00;100.00;96094.91;1027801;28;20034;-62
2021/09/25 01:02:47;;;;;;;15.63;10.32;;;;;;;12.02;100.00;96092.75;1027713;28;20106;-62
2021/09/25 01:03:18;;;;;;;13.20;10.57;;;;;;;12.01;100.00;96091.94;1027901;28;20046;-61
2021/09/25 01:03:48;;;;;;;16.20;10.50;;;;;;;12.00;100.00;96092.22;1027720;28;20027;-62
2021/09/25 01:04:18;;;;;;;17.57;11.60;;;;;;;12.01;100.00;96091.94;1020351;29;20024;-62
2021/09/25 01:04:49;;;;;;;14.23;11.00;;;;;;;11.99;100.00;96099.47;1023734;29;20078;-62
2021/09/25 01:05:21;;;;;;;12.70;10.23;;;;;;;11.97;100.00;96089.00;1023863;29;20416;-62
2021/09/25 01:05:51;;;;;;;15.80;10.45;;;;;;;11.97;100.00;96102.41;1020243;28;20027;-63
2021/09/25 01:06:22;;;;;;;16.07;10.57;;;;;;;11.99;100.00;96094.09;1027738;28;20499;-62
2021/09/25 01:06:52;;;;;;;14.23;9.90;;;;;;;11.99;100.00;96086.06;1027694;28;20066;-62
2021/09/25 01:07:23;;;;;;;16.20;11.17;;;;;;;12.01;100.00;96096.50;1027805;28;20029;-62
2021/09/25 01:07:53;;;;;;;13.63;10.57;;;;;;;12.00;100.00;96094.91;1028009;28;20038;-62
2021/09/25 01:08:23;;;;;;;13.47;11.20;;;;;;;12.01;100.00;96093.81;1028040;28;20031;-62
2021/09/25 01:08:54;;;;;;;16.23;11.40;;;;;;;12.00;100.00;96094.91;1028109;28;20030;-62
2021/09/25 01:09:24;;;;;;;16.87;11.77;;;;;;;11.94;100.00;96092.25;1023742;29;20023;-63
2021/09/25 01:09:55;;;;;;;14.23;10.60;;;;;;;11.98;100.00;96095.19;1023734;29;20038;-62
2021/09/25 01:10:25;;;;;;;14.43;11.23;;;;;;;11.97;100.00;96088.22;1019701;29;20028;-62
2021/09/25 01:10:56;;;;;;;13.60;10.70;;;;;;;11.97;100.00;96094.38;1016052;29;20028;-63
2021/09/25 01:11:26;;;;;;;14.37;11.13;;;;;;;11.97;100.00;96090.88;1019847;29;20102;-63
2021/09/25 01:11:57;;;;;;;13.97;10.27;;;;;;;11.95;100.00;96091.19;1019921;29;20027;-62
2021/09/25 01:12:27;;;;;;;14.90;10.80;;;;;;;11.96;100.00;96092.78;1023716;28;20034;-63
2021/09/25 01:12:57;;;;;;;14.27;10.50;;;;;;;11.95;100.00;96101.09;1027735;28;20407;-62
2021/09/25 01:13:30;;;;;;;14.00;10.33;;;;;;;11.95;100.00;96077.78;1023982;28;20476;-61
2021/09/25 01:14:00;;;;;;;16.58;11.35;;;;;;;11.95;100.00;96107.25;1027740;28;20031;-61
2021/09/25 01:14:31;;;;;;;13.27;10.13;;;;;;;11.95;100.00;96093.84;1023831;29;20023;-62
2021/09/25 01:15:06;;;;;;;21.93;11.10;;;;;;;11.98;100.00;96092.50;1024082;28;20024;-63
2021/09/25 01:15:36;;;;;;;14.98;11.75;;;;;;;11.96;100.00;96090.09;1027845;28;20046;-62
2021/09/25 01:16:06;;;;;;;16.97;11.53;;;;;;;11.95;100.00;96091.19;1027821;28;20035;-62
2021/09/25 01:16:37;;;;;;;14.53;11.47;;;;;;;11.90;100.00;96085.03;1028077;28;20023;-62
2021/09/25 01:17:09;;;;;;;13.83;11.10;;;;;;;11.90;100.00;96093.09;1028051;28;20093;-62
2021/09/25 01:17:39;;;;;;;14.23;11.05;;;;;;;11.88;100.00;96092.56;1028063;28;20026;-62
2021/09/25 01:18:10;;;;;;;14.73;11.67;;;;;;;11.88;100.00;96100.59;1028082;28;20070;-62
2021/09/25 01:18:40;;;;;;;15.83;11.43;;;;;;;11.87;100.00;96093.63;1028087;28;20047;-63
2021/09/25 01:19:10;;;;;;;14.17;10.73;;;;;;;11.84;100.00;96094.97;1027944;28;20069;-63
2021/09/25 01:19:41;;;;;;;13.93;10.73;;;;;;;11.85;100.00;96091.22;1028053;28;20051;-63
2021/09/25 01:20:12;;;;;;;13.63;10.33;;;;;;;11.82;100.00;96086.41;1028086;28;20034;-63
2021/09/25 01:20:42;;;;;;;13.13;10.87;;;;;;;11.85;100.00;96090.44;1028166;28;20446;-62
2021/09/25 01:21:13;;;;;;;14.73;10.83;;;;;;;11.82;100.00;96091.75;1027983;28;20022;-63
2021/09/25 01:21:43;;;;;;;15.83;11.20;;;;;;;11.85;100.00;96087.75;1028122;28;20022;-63
2021/09/25 01:22:14;;;;;;;13.50;9.60;;;;;;;11.86;100.00;96092.81;1028051;28;20499;-62
2021/09/25 01:22:44;;;;;;;13.60;10.27;;;;;;;11.88;100.00;96088.00;1028050;28;20038;-63
2021/09/25 01:23:14;;;;;;;15.70;10.60;;;;;;;11.83;100.00;96085.34;1027647;28;20046;-63
2021/09/25 01:23:45;;;;;;;13.63;10.90;;;;;;;11.84;100.00;96091.50;1023771;29;20535;-62
2021/09/25 01:24:15;;;;;;;14.03;10.97;;;;;;;11.82;100.00;96089.09;1023782;28;20510;-62
2021/09/25 01:24:46;;;;;;;14.17;11.07;;;;;;;11.86;100.00;96087.47;1023805;28;20078;-62
2021/09/25 01:25:16;;;;;;;16.17;11.40;;;;;;;11.84;100.00;96089.63;1027665;28;20134;-63
2021/09/25 01:25:47;;;;;;;15.03;11.50;;;;;;;11.85;100.00;96090.44;1027726;28;20073;-63
2021/09/25 01:26:17;;;;;;;13.93;10.93;;;;;;;11.85;100.00;96093.09;1023827;29;20082;-63
2021/09/25 01:26:48;;;;;;;18.50;11.97;;;;;;;11.82;100.00;96099.00;1023796;29;20526;-63
2021/09/25 01:27:18;;;;;;;13.47;10.60;;;;;;;11.80;100.00;96091.22;1023846;28;20496;-62
2021/09/25 01:27:48;;;;;;;14.10;11.10;;;;;;;11.78;100.00;96103.28;1027749;28;20070;-63
2021/09/25 01:28:19;;;;;;;14.30;10.20;;;;;;;11.77;100.00;96104.34;1023722;28;20030;-62
2021/09/25 01:28:49;;;;;;;16.40;10.90;;;;;;;11.78;100.00;96093.38;1019774;29;20020;-63
2021/09/25 01:29:20;;;;;;;14.73;11.13;;;;;;;11.81;100.00;96100.84;1019699;29;20028;-63
2021/09/25 01:29:50;;;;;;;14.13;10.50;;;;;;;11.83;100.00;96096.06;1019928;28;20020;-62
2021/09/25 01:30:21;;;;;;;15.33;11.70;;;;;;;11.83;100.00;96101.41;1027779;28;20455;-62
2021/09/25 01:30:51;;;;;;;17.67;12.03;;;;;;;11.83;100.00;96096.06;1031699;28;20111;-62
2021/09/25 01:31:21;;;;;;;15.87;11.67;;;;;;;11.82;100.00;96091.75;1027983;28;20050;-62
2021/09/25 01:31:52;;;;;;;15.30;12.30;;;;;;;11.76;100.00;96095.50;1028000;28;20037;-63
2021/09/25 01:32:22;;;;;;;14.97;11.50;;;;;;;11.78;100.00;96092.59;1028090;28;20030;-62
2021/09/25 01:32:53;;;;;;;14.13;10.73;;;;;;;11.76;100.00;96090.16;1028085;28;20387;-63
2021/09/25 01:33:31;;;;;;;22.40;11.70;;;;;;;11.73;100.00;96095.28;1027937;28;20023;-62
2021/09/25 01:34:01;;;;;;;14.52;11.35;;;;;;;11.68;100.00;96088.88;1028007;28;20030;-62
2021/09/25 01:34:33;;;;;;;12.97;10.30;;;;;;;11.71;100.00;96088.31;1028073;28;20030;-62
2021/09/25 01:35:03;;;;;;;14.83;10.83;;;;;;;11.70;100.00;96085.91;1028058;28;20467;-62
2021/09/25 01:35:34;;;;;;;14.47;11.10;;;;;;;11.70;100.00;96094.72;1027933;28;20026;-63
2021/09/25 01:36:06;;;;;;;14.20;11.03;;;;;;;11.72;100.00;96091.81;1027999;28;20019;-62
2021/09/25 01:36:36;;;;;;;14.98;11.52;;;;;;;11.69;100.00;96089.66;1028411;28;20426;-63
2021/09/25 01:37:07;;;;;;;13.33;11.17;;;;;;;11.67;100.00;96089.94;1028468;28;20035;-62
2021/09/25 01:37:37;;;;;;;15.35;12.15;;;;;;;11.59;100.00;96089.69;1028387;28;20026;-62
2021/09/25 01:38:08;;;;;;;14.47;10.73;;;;;;;11.61;100.00;96084.88;1024463;29;20016;-62
2021/09/25 01:38:39;;;;;;;14.17;11.80;;;;;;;11.62;100.00;96084.63;1024630;28;20034;-62
2021/09/25 01:39:09;;;;;;;16.73;11.83;;;;;;;11.64;100.00;96087.81;1028453;28;20023;-62
2021/09/25 01:39:39;;;;;;;16.93;11.63;;;;;;;11.64;100.00;96087.81;1028425;28;20035;-62
2021/09/25 01:40:10;;;;;;;15.07;11.37;;;;;;;11.65;100.00;96083.25;1028360;28;20034;-63
2021/09/25 01:40:41;;;;;;;15.20;10.53;;;;;;;11.65;100.00;96088.59;1028455;28;20134;-62
2021/09/25 01:41:12;;;;;;;14.70;10.80;;;;;;;11.64;100.00;96089.69;1028473;28;20018;-62
2021/09/25 01:41:42;;;;;;;14.57;11.73;;;;;;;11.66;100.00;96087.53;1024495;28;20062;-62
2021/09/25 01:42:12;;;;;;;15.20;10.53;;;;;;;11.64;100.00;96087.00;1028435;28;20026;-63
2021/09/25 01:42:43;;;;;;;17.70;11.73;;;;;;;11.64;100.00;96093.16;1020432;29;20027;-62
2021/09/25 01:43:15;;;;;;;16.37;11.70;;;;;;;11.67;100.00;96089.16;1020588;29;20023;-62
2021/09/25 01:43:46;;;;;;;15.27;11.50;;;;;;;11.66;100.00;96084.84;1016441;29;20034;-62
2021/09/25 01:44:16;;;;;;;15.27;11.93;;;;;;;11.69;100.00;96089.66;1016834;29;20031;-62
2021/09/25 01:44:48;;;;;;;17.00;11.93;;;;;;;11.68;100.00;96088.06;1016791;29;20036;-63
2021/09/25 01:45:18;;;;;;;15.65;11.88;;;;;;;11.68;100.00;96082.72;1021236;28;20047;-62
2021/09/25 01:45:49;;;;;;;16.00;11.60;;;;;;;11.67;100.00;96091.81;1024349;28;20019;-62
2021/09/25 01:46:19;;;;;;;15.00;11.53;;;;;;;11.64;100.00;96095.84;1024456;28;20503;-62
2021/09/25 01:46:50;;;;;;;13.57;11.03;;;;;;;11.61;100.00;96096.38;1028398;28;20439;-62
2021/09/25 01:47:20;;;;;;;15.13;11.53;;;;;;;11.61;100.00;96087.53;1024469;28;20035;-62
2021/09/25 01:47:51;;;;;;;14.90;11.17;;;;;;;11.61;100.00;96095.56;1028374;28;20031;-62
2021/09/25 01:48:21;;;;;;;15.03;11.40;;;;;;;11.61;100.00;96087.53;1028327;28;20027;-62
2021/09/25 01:48:51;;;;;;;16.03;11.70;;;;;;;11.58;100.00;96088.91;1024548;28;20089;-62
2021/09/25 01:49:22;;;;;;;14.93;11.47;;;;;;;11.60;100.00;96092.09;1028409;28;20105;-62
2021/09/25 01:49:53;;;;;;;14.47;11.27;;;;;;;11.61;100.00;96095.56;1024366;28;20038;-62
2021/09/25 01:50:23;;;;;;;15.00;11.03;;;;;;;11.60;100.00;96093.97;1020438;29;20114;-63
2021/09/25 01:50:53;;;;;;;14.67;11.13;;;;;;;11.59;100.00;96101.22;1024429;29;20035;-62
2021/09/25 01:51:24;;;;;;;15.40;11.83;;;;;;;11.60;100.00;96092.09;1020283;29;20028;-62
2021/09/25 01:51:54;;;;;;;18.43;11.87;;;;;;;11.61;100.00;96090.22;1020337;29;20575;-62
2021/09/25 01:52:25;;;;;;;19.83;13.13;;;;;;;11.56;100.00;96090.25;1024284;28;20027;-62
2021/09/25 01:52:55;;;;;;;15.80;12.17;;;;;;;11.58;100.00;96098.81;1016507;29;20028;-62
2021/09/25 01:53:25;;;;;;;15.57;11.77;;;;;;;11.55;100.00;96096.69;1020473;29;20365;-62
2021/09/25 01:53:56;;;;;;;16.70;11.47;;;;;;;11.56;100.00;96096.38;1012593;29;20542;-62
2021/09/25 01:54:26;;;;;;;17.07;12.07;;;;;;;11.55;100.00;96092.13;1016628;29;20493;-62
2021/09/25 01:54:57;;;;;;;14.53;11.73;;;;;;;11.54;100.00;96095.88;1024367;29;20031;-62
2021/09/25 01:55:27;;;;;;;14.27;11.37;;;;;;;11.55;100.00;96092.13;1020492;28;20087;-62
2021/09/25 01:56:04;;;;;;;16.20;11.27;;;;;;;11.57;100.00;96095.34;1024344;28;20082;-62
2021/09/25 01:56:35;;;;;;;14.90;10.80;;;;;;;11.53;100.00;96090.81;1020417;29;20035;-62
2021/09/25 01:57:05;;;;;;;14.97;11.50;;;;;;;11.52;100.00;96091.88;1021398;29;20027;-62
2021/09/25 01:57:35;;;;;;;15.73;11.43;;;;;;;11.50;100.00;96094.00;1025298;28;20023;-62
2021/09/25 01:58:06;;;;;;;15.13;11.17;;;;;;;11.52;100.00;96095.34;1028498;28;20472;-62
2021/09/25 01:58:36;;;;;;;15.47;11.77;;;;;;;11.51;100.00;96093.72;1028632;28;20456;-62
2021/09/25 01:59:07;;;;;;;15.97;11.20;;;;;;;11.52;100.00;96098.03;1028360;28;20030;-62
2021/09/25 01:59:37;;;;;;;17.77;11.43;;;;;;;11.53;100.00;96088.94;1028370;28;20527;-62
2021/09/25 02:00:08;;;;;;;14.83;11.30;;;;;;;11.52;100.00;96090.00;1028399;28;20027;-62
2021/09/25 02:00:39;;;;;;;15.13;11.82;;;;;;;11.53;100.00;96091.59;1028300;28;20150;-62
2021/09/25 02:01:09;;;;;;;15.63;11.63;;;;;;;11.53;100.00;96091.59;1028367;28;20022;-62
2021/09/25 02:01:40;;;;;;;15.40;11.97;;;;;;;11.54;100.00;96087.84;1028319;28;20026;-62
2021/09/25 02:02:11;;;;;;;16.23;11.90;;;;;;;11.55;100.00;96085.97;1028360;28;20258;-62
2021/09/25 02:02:41;;;;;;;18.50;12.10;;;;;;;11.49;100.00;96090.53;1024250;29;20416;-62
2021/09/25 02:03:12;;;;;;;18.33;13.00;;;;;;;11.48;100.00;96088.94;1020397;29;20357;-62
2021/09/25 02:03:42;;;;;;;14.60;11.77;;;;;;;11.47;100.00;96081.19;1020430;29;20069;-62
2021/09/25 02:04:13;;;;;;;15.67;12.27;;;;;;;11.51;100.00;96080.34;1020522;29;20032;-62
2021/09/25 02:04:47;;;;;;;15.70;10.77;;;;;;;11.54;100.00;96082.50;1024369;28;20551;-62
2021/09/25 02:05:17;;;;;;;17.33;11.73;;;;;;;11.54;100.00;96085.16;1028681;28;20023;-63
2021/09/25 02:05:47;;;;;;;16.37;12.17;;;;;;;11.51;100.00;96085.69;1028668;28;20031;-62
2021/09/25 02:06:18;;;;;;;15.87;12.40;;;;;;;11.49;100.00;96087.06;1028724;28;20522;-62
2021/09/25 02:06:48;;;;;;;15.37;11.73;;;;;;;11.48;100.00;96083.59;1028578;28;20078;-62
2021/09/25 02:07:19;;;;;;;16.53;12.27;;;;;;;11.49;100.00;96082.50;1028705;28;20456;-62
2021/09/25 02:07:49;;;;;;;20.73;12.30;;;;;;;11.53;100.00;96085.44;1028609;28;20581;-62
2021/09/25 02:08:20;;;;;;;15.33;11.37;;;;;;;11.54;100.00;96084.38;1028672;28;20498;-62
2021/09/25 02:08:50;;;;;;;16.57;12.47;;;;;;;11.50;100.00;96085.97;1028470;28;20612;-62
2021/09/25 02:09:20;;;;;;;15.13;11.83;;;;;;;11.52;100.00;96086.53;1028730;28;20421;-63
2021/09/25 02:09:51;;;;;;;15.57;12.03;;;;;;;11.53;100.00;96082.78;1028245;28;20030;-63
2021/09/25 02:10:23;;;;;;;17.60;11.73;;;;;;;11.52;100.00;96083.84;1028411;28;20460;-62
2021/09/25 02:10:53;;;;;;;14.93;11.27;;;;;;;11.53;100.00;96082.78;1028267;28;20027;-63
2021/09/25 02:11:24;;;;;;;16.00;12.03;;;;;;;11.51;100.00;96085.69;1028393;28;20022;-62
2021/09/25 02:11:54;;;;;;;15.30;11.60;;;;;;;11.52;100.00;96081.19;1028580;28;20033;-62
2021/09/25 02:12:25;;;;;;;17.43;12.27;;;;;;;11.52;100.00;96089.22;1028688;28;20266;-62
2021/09/25 02:12:55;;;;;;;17.20;12.90;;;;;;;11.48;100.00;96082.78;1028580;28;20081;-62
2021/09/25 02:13:26;;;;;;;17.27;12.57;;;;;;;11.45;100.00;96079.56;1028582;28;20022;-63
2021/09/25 02:13:56;;;;;;;14.80;12.40;;;;;;;11.47;100.00;96075.84;1028583;28;20034;-62
2021/09/25 02:14:27;;;;;;;16.67;12.03;;;;;;;11.46;100.00;96083.03;1028369;28;20011;-63
2021/09/25 02:14:57;;;;;;;18.40;12.87;;;;;;;11.44;100.00;96077.19;1028278;28;20023;-63
2021/09/25 02:15:29;;;;;;;16.77;12.67;;;;;;;11.42;100.00;96084.69;1024355;29;20443;-63
2021/09/25 02:16:00;;;;;;;18.10;12.93;;;;;;;11.47;100.00;96075.84;1024574;28;20038;-62
2021/09/25 02:16:30;;;;;;;15.43;12.20;;;;;;;11.51;100.00;96076.88;1028357;28;20026;-63
2021/09/25 02:17:01;;;;;;;17.57;13.03;;;;;;;11.50;100.00;96077.97;1028240;28;20490;-62
2021/09/25 02:17:31;;;;;;;15.37;12.67;;;;;;;11.50;100.00;96080.63;1028276;28;20015;-62
2021/09/25 02:18:02;;;;;;;17.47;12.83;;;;;;;11.49;100.00;96079.03;1024336;29;20054;-62
2021/09/25 02:18:32;;;;;;;17.30;12.03;;;;;;;11.49;100.00;96084.38;1024383;29;20094;-62
2021/09/25 02:19:03;;;;;;;17.27;12.13;;;;;;;11.49;100.00;96079.84;1024283;29;20024;-62
2021/09/25 02:19:33;;;;;;;16.30;12.17;;;;;;;11.52;100.00;96083.84;1020484;28;20369;-62